21 Sep 2018 12:22 UTC 2018264+12:22 UTC

Overview Datums Bench Marks Data Query Site Visit Daily QC Messages Attributes

170: National Park Service - Baffin Bay

27° 17' 49" N   97° 24' 17" W
NPSBB
United States National Park Service United States National Park Service

Station Information

National Park Service - Baffin Bay
National Park Service - Baffin Bay
more pictures
 
Station Name:National Park Service - Baffin Bay
DNR ID:170
Location:27° 17' 49" N, 97° 24' 17" W

Water Level Forecasts

Latest Observations

Series Metric English Marine Observed at
Water Temperature 28.3 °C 82.9 °F 82.9 °F Sep 21 07:12 CDT
00h07m ago
Salinity 35.400 psu 35.400 psu 35.400 psu Sep 21 07:12 CDT
00h07m ago
pH 8.26 pH 8.26 pH 8.26 pH Sep 21 07:12 CDT
00h07m ago
Turbidity -1 ntu -1 ntu -1 ntu Sep 21 07:12 CDT
00h07m ago
Dissolved Oxygen 4.09 mg/L 0.000255 lb/ft3 0.000255 lb/ft3 Sep 21 07:12 CDT
00h07m ago

Maps

National Park Service - Baffin Bay
All Stations in Area
Entire Network
 

Recent Observations

Date/Time Water
Temp (°F)
Sal (psu) pH (pH) Turb (ntu) DO (lb/ft3)
Sep 21 07:00 CDT 82.9 35.400 8.28 -1 0.000174
Sep 21 06:00 CDT 83.1 35.500 8.28 -0 0.000192
Sep 21 05:00 CDT 83.3 35.600 8.30 -1 0.000403
Sep 21 04:00 CDT 83.5 35.900 8.31 0 0.000242
Sep 21 03:00 CDT 83.7 36.000 8.33 0 0.000215
Sep 21 02:00 CDT 83.8 35.900 8.33 0 0.000304
Sep 21 01:00 CDT 83.8 36.000 8.31 -0 0.000184
Sep 21 00:00 CDT 84.2 36.000 8.33 -0 0.000184
Sep 20 23:00 CDT 84.4 36.200 8.35 0 0.000348
Sep 20 22:00 CDT 84.7 36.200 8.38 0 0.000220
Sep 20 21:00 CDT 85.5 36.200 8.42 -1 0.000282
Sep 20 20:00 CDT 86.0 36.200 8.46 0 0.000324
Sep 20 19:00 CDT 86.7 36.300 8.48 0 0.000296
Sep 20 18:00 CDT 87.8 36.300 8.50 -1 0.000338
Sep 20 17:00 CDT 88.9 36.400 8.53 0 0.000370
Sep 20 16:00 CDT 88.9 36.500 8.51 0 0.000427
Sep 20 15:00 CDT 88.5 36.500 8.47 -0 0.000351
Sep 20 14:00 CDT 87.8 36.600 8.45 0 0.000504
Sep 20 13:00 CDT 86.4 36.500 8.38 -0 0.000261
Sep 20 12:00 CDT 85.1 36.600 8.33 0 0.000396
Sep 20 11:00 CDT 84.0 36.500 8.29 -1 0.000234
Sep 20 10:00 CDT 83.3 36.600 8.26 -0 0.000152
Sep 20 09:00 CDT 82.9 36.600 8.27 0 0.000138
Sep 20 08:00 CDT 83.1 36.500 8.28 -1 0.000143
Sep 20 07:00 CDT 83.3 36.600 8.31 -2 0.000194

Historical Data Availability